Time;durP1;ratioP1;P1;durP2;ratioP2;P2;SDS_P1;SDS_P2;PMS_P1;PMS_P2;Temp;Humidity;BMP_temperature;BMP_pressure;BME280_temperature;BME280_humidity;BME280_pressure;Samples;Min_cycle;Max_cycle;Signal;HPM_P1;HPM_P2
2022/02/05 00:00:25;;;;;;;7.33;3.40;;;;;;;4.18;80.55;100405.41;5081389;28;20497;-68
2022/02/05 00:02:59;;;;;;;12.43;3.97;;;;;;;4.46;80.19;100400.19;5080828;28;20422;-68
2022/02/05 00:05:36;;;;;;;6.53;3.90;;;;;;;4.46;79.96;100390.72;5061069;28;20531;-67
2022/02/05 00:40:10;;;;;;;6.20;3.30;;;;;;;4.05;80.54;100429.94;5080450;28;20454;-67
2022/02/05 00:42:41;;;;;;;8.27;3.40;;;;;;;4.12;80.01;100435.31;5080229;28;20725;-67
2022/02/05 00:45:09;;;;;;;3.40;3.10;;;;;;;4.40;80.01;100434.44;5080058;28;20883;-66
2022/02/05 00:47:37;;;;;;;3.40;3.10;;;;;;;4.27;80.10;100435.75;5080170;28;20416;-66
2022/02/05 00:50:05;;;;;;;6.33;3.50;;;;;;;4.28;80.12;100445.25;5080258;28;20415;-68
2022/02/05 00:52:30;;;;;;;6.13;3.20;;;;;;;4.36;79.22;100443.78;5080102;28;20494;-69
2022/02/05 00:55:04;;;;;;;5.73;3.30;;;;;;;4.60;78.50;100445.34;5062682;28;20469;-68
2022/02/05 00:57:44;;;;;;;7.77;3.17;;;;;;;4.86;77.13;100460.72;5079915;28;20185;-68
2022/02/05 01:00:09;;;;;;;3.43;3.13;;;;;;;4.78;77.73;100459.63;5079976;28;20454;-67
2022/02/05 01:02:35;;;;;;;5.17;2.93;;;;;;;5.02;80.00;100460.31;5070661;28;20471;-61
2022/02/05 01:05:00;;;;;;;5.97;2.83;;;;;;;7.74;75.06;100457.69;5059521;28;20181;-60
2022/02/05 01:07:26;;;;;;;4.33;2.60;;;;;;;6.10;72.30;100456.16;5060331;28;20181;-66
2022/02/05 01:09:51;;;;;;;5.63;2.83;;;;;;;5.23;75.94;100454.84;5042708;28;20539;-64
2022/02/05 01:12:18;;;;;;;3.13;2.80;;;;;;;4.80;77.32;100468.28;5061058;28;20267;-67
2022/02/05 01:14:52;;;;;;;5.30;2.80;;;;;;;4.71;77.32;100456.84;5060717;28;20173;-66
2022/02/05 01:17:23;;;;;;;3.20;2.47;;;;;;;4.42;78.67;100460.28;5059478;28;20452;-66
2022/02/05 01:22:15;;;;;;;6.13;3.00;;;;;;;5.01;76.93;100462.84;5059453;28;20424;-65
2022/02/05 01:24:42;;;;;;;5.53;2.70;;;;;;;4.79;77.44;100474.28;5059289;28;20212;-66
2022/02/05 01:27:26;;;;;;;7.97;3.40;;;;;;;4.72;77.69;100483.53;5042282;28;20419;-65
2022/02/05 01:32:38;;;;;;;4.67;2.77;;;;;;;4.91;78.35;100491.84;5059412;28;20471;-65
2022/02/05 01:35:15;;;;;;;4.13;2.87;;;;;;;4.37;78.75;100486.84;5065983;28;20549;-65
2022/02/05 01:56:50;;;;;;;5.93;3.23;;;;;;;4.81;78.69;100506.19;5078810;28;20389;-66
2022/02/05 01:59:45;;;;;;;6.97;2.77;;;;;;;4.66;78.83;100512.66;5078950;28;20442;-65
2022/02/05 02:05:02;;;;;;;6.13;2.93;;;;;;;4.70;78.25;100517.06;5078787;28;20883;-65
2022/02/05 02:12:54;;;;;;;3.70;2.60;;;;;;;4.55;79.35;100517.50;5078456;28;20493;-65
2022/02/05 02:15:33;;;;;;;3.37;2.97;;;;;;;4.80;78.14;100518.22;5078383;28;20412;-65
2022/02/05 02:21:15;;;;;;;4.83;3.00;;;;;;;4.37;78.95;100525.56;5078340;28;20726;-65
2022/02/05 02:26:23;;;;;;;3.07;2.77;;;;;;;4.96;77.53;100503.19;5078597;28;20451;-65
2022/02/05 02:29:03;;;;;;;6.67;2.90;;;;;;;4.22;78.16;100514.72;5078612;28;20433;-66
2022/02/05 02:31:36;;;;;;;3.90;2.67;;;;;;;4.45;78.55;100512.91;5078475;28;20859;-65
2022/02/05 02:34:05;;;;;;;4.17;2.73;;;;;;;4.47;78.58;100515.50;5078136;28;20498;-65
2022/02/05 02:39:03;;;;;;;3.60;2.97;;;;;;;4.33;78.47;100523.72;5078997;28;20415;-65
2022/02/05 02:41:35;;;;;;;7.00;3.20;;;;;;;4.32;78.73;100524.53;5078456;28;20243;-65
2022/02/05 02:44:00;;;;;;;4.23;3.00;;;;;;;4.51;78.14;100532.84;5078194;28;20791;-67
2022/02/05 02:46:26;;;;;;;8.20;3.57;;;;;;;4.85;77.20;100531.28;5078368;28;20426;-66
2022/02/05 02:48:51;;;;;;;3.70;3.30;;;;;;;4.99;77.33;100532.56;5080804;28;20177;-66
2022/02/05 02:56:52;;;;;;;8.30;4.00;;;;;;;4.67;77.79;100545.41;5064662;28;20417;-66
2022/02/05 02:59:27;;;;;;;11.47;4.33;;;;;;;4.29;79.09;100557.09;5078077;28;20425;-65
2022/02/05 03:02:27;;;;;;;3.90;3.50;;;;;;;4.36;78.93;100554.75;5078058;28;20871;-65
2022/02/05 03:04:44;;;;;;;7.43;4.00;;;;;;;4.77;78.32;100556.00;5073954;28;20402;-66
2022/02/05 03:07:09;;;;;;;8.00;3.73;;;;;;;4.43;78.63;100557.56;5078145;28;20785;-65
2022/02/05 03:09:35;;;;;;;5.10;3.17;;;;;;;4.55;78.89;100545.88;5078179;28;20169;-65
2022/02/05 03:12:00;;;;;;;5.17;3.57;;;;;;;4.15;78.98;100559.22;5077948;28;20220;-65
2022/02/05 03:14:26;;;;;;;5.30;3.40;;;;;;;4.23;79.87;100562.94;5078624;28;20847;-65
2022/02/05 03:17:00;;;;;;;3.63;3.03;;;;;;;4.13;79.30;100563.47;5078158;28;20165;-65
2022/02/05 03:19:26;;;;;;;7.00;3.00;;;;;;;4.14;79.05;100570.38;5077831;28;20176;-65
2022/02/05 03:21:51;;;;;;;5.20;2.80;;;;;;;4.11;79.85;100573.72;5078080;28;20407;-66
2022/02/05 03:24:16;;;;;;;4.67;2.87;;;;;;;3.98;79.17;100571.59;5077713;28;20441;-65
2022/02/05 03:26:41;;;;;;;5.70;2.43;;;;;;;4.19;78.67;100602.38;5077886;28;20184;-65
2022/02/05 03:29:09;;;;;;;5.00;2.67;;;;;;;4.30;77.47;100618.19;5078214;28;20173;-65
2022/02/05 03:31:35;;;;;;;4.83;2.60;;;;;;;4.44;76.70;100631.56;5077634;28;20295;-65
2022/02/05 03:34:00;;;;;;;2.83;2.30;;;;;;;4.98;75.44;100635.84;5077517;28;20499;-66
2022/02/05 03:36:26;;;;;;;4.07;2.80;;;;;;;4.19;77.82;100651.38;5077342;28;20856;-65
2022/02/05 03:38:52;;;;;;;3.20;2.13;;;;;;;4.18;78.28;100670.25;5077618;28;20180;-66
2022/02/05 03:41:17;;;;;;;3.70;2.43;;;;;;;4.30;77.34;100665.56;5077906;28;20181;-65
2022/02/05 03:43:42;;;;;;;5.67;3.27;;;;;;;4.07;78.56;100669.91;5077326;28;20801;-65
2022/02/05 03:46:08;;;;;;;6.10;2.80;;;;;;;4.11;79.43;100676.06;5077367;28;20553;-65
2022/02/05 03:48:33;;;;;;;3.70;2.37;;;;;;;3.76;79.82;100688.56;5060312;28;20173;-65
2022/02/05 03:50:58;;;;;;;2.70;2.37;;;;;;;3.70;78.76;100691.81;5059936;28;20181;-65
2022/02/05 03:53:24;;;;;;;3.77;2.00;;;;;;;3.44;79.56;100677.97;5077149;28;20283;-64
2022/02/05 03:55:49;;;;;;;2.23;2.03;;;;;;;3.42;80.08;100661.53;5077984;28;20252;-64
2022/02/05 03:58:14;;;;;;;4.07;2.17;;;;;;;3.69;78.76;100675.47;5077454;28;20259;-65
2022/02/05 04:00:40;;;;;;;4.03;2.00;;;;;;;3.65;78.62;100685.59;5077576;28;20327;-65
2022/02/05 04:03:06;;;;;;;2.40;2.17;;;;;;;3.71;79.30;100689.28;5077693;28;20165;-65
2022/02/05 04:05:32;;;;;;;2.43;2.23;;;;;;;3.59;80.38;100664.75;5080683;28;20238;-65
2022/02/05 04:07:57;;;;;;;2.43;2.23;;;;;;;3.58;79.65;100656.13;5081097;28;20419;-66
2022/02/05 04:10:31;;;;;;;1.90;1.80;;;;;;;3.46;79.87;100666.00;5081625;28;20541;-66
2022/02/05 04:16:08;;;;;;;2.90;2.40;;;;;;;3.76;79.79;100671.41;5081035;28;20418;-66
2022/02/05 04:18:33;;;;;;;3.20;2.77;;;;;;;3.67;80.08;100658.19;5080721;28;20415;-66
2022/02/05 04:20:58;;;;;;;3.07;2.47;;;;;;;3.45;81.84;100669.38;5080850;28;20487;-65
2022/02/05 04:23:24;;;;;;;3.90;2.30;;;;;;;3.46;80.68;100663.41;5080829;28;20495;-65
2022/02/05 04:25:49;;;;;;;2.60;1.90;;;;;;;3.60;80.68;100675.13;5065700;28;20204;-65
2022/02/05 04:28:15;;;;;;;2.87;2.53;;;;;;;3.10;82.61;100674.06;5081358;28;20169;-65
2022/02/05 04:30:40;;;;;;;4.43;2.93;;;;;;;3.34;81.11;100687.03;5080853;28;20209;-65
2022/02/05 04:33:05;;;;;;;2.33;2.13;;;;;;;3.43;81.72;100691.66;5081016;28;20208;-66
2022/02/05 04:35:31;;;;;;;4.13;2.63;;;;;;;3.36;81.60;100691.41;5080962;28;20571;-65
2022/02/05 04:37:58;;;;;;;2.90;2.50;;;;;;;3.35;81.56;100687.06;5080591;28;20203;-65
2022/02/05 04:43:16;;;;;;;3.47;2.37;;;;;;;3.44;81.54;100690.84;5080370;28;20419;-66
2022/02/05 04:48:37;;;;;;;3.97;2.70;;;;;;;3.45;81.74;100688.31;5080062;28;20486;-65
2022/02/05 04:56:31;;;;;;;5.80;3.27;;;;;;;3.56;80.38;100704.19;5080231;28;20472;-65
2022/02/05 05:02:09;;;;;;;5.20;2.50;;;;;;;3.60;80.51;100713.78;5079741;28;20499;-65
2022/02/05 05:04:35;;;;;;;3.30;2.70;;;;;;;4.04;79.33;100706.78;5078934;28;20397;-65
2022/02/05 05:20:22;;;;;;;4.67;2.83;;;;;;;3.86;79.42;100726.78;5079696;28;20731;-65
2022/02/05 05:22:48;;;;;;;4.57;2.90;;;;;;;3.86;79.03;100737.09;5079455;28;20427;-65
2022/02/05 05:25:13;;;;;;;4.40;2.53;;;;;;;4.00;79.50;100724.69;5079305;28;20169;-65
2022/02/05 05:27:38;;;;;;;5.03;2.63;;;;;;;3.77;80.79;100752.22;5079500;28;20444;-65
2022/02/05 05:30:05;;;;;;;5.90;2.80;;;;;;;3.93;79.10;100754.53;5080042;28;20459;-65
2022/02/05 05:32:30;;;;;;;5.07;2.90;;;;;;;3.79;79.00;100763.44;5079175;28;20217;-66
2022/02/05 05:34:56;;;;;;;8.17;3.30;;;;;;;3.77;79.41;100767.69;5079034;28;20707;-65
2022/02/05 05:37:21;;;;;;;4.70;2.50;;;;;;;3.65;81.07;100766.41;5062821;28;20183;-66
2022/02/05 05:39:49;;;;;;;4.30;3.00;;;;;;;3.95;79.31;100770.97;5079443;28;20201;-69
2022/02/05 05:42:20;;;;;;;5.23;2.73;;;;;;;4.24;78.85;100772.84;5079336;28;20177;-65
2022/02/05 05:52:20;;;;;;;4.00;3.00;;;;;;;3.64;80.00;100792.09;5078831;28;20504;-65
2022/02/05 05:54:46;;;;;;;5.20;3.40;;;;;;;3.79;79.15;100802.13;5078677;28;20461;-64
2022/02/05 05:57:11;;;;;;;5.50;3.07;;;;;;;3.62;80.19;100811.81;5079117;28;20271;-65
2022/02/05 05:59:41;;;;;;;8.17;3.40;;;;;;;3.52;80.03;100808.00;5061434;28;20534;-66
2022/02/05 06:02:07;;;;;;;5.77;2.80;;;;;;;3.50;79.88;100812.19;5078778;28;20235;-65
2022/02/05 06:04:32;;;;;;;7.93;2.80;;;;;;;3.27;80.46;100816.44;5079231;28;20412;-65
2022/02/05 06:06:57;;;;;;;5.03;3.00;;;;;;;3.77;80.22;100809.81;5078524;28;20862;-64
2022/02/05 06:09:22;;;;;;;5.40;3.00;;;;;;;3.71;80.77;100815.63;5078790;28;20518;-66
2022/02/05 06:11:49;;;;;;;4.00;2.47;;;;;;;3.43;80.41;100823.97;5079067;28;20217;-65
2022/02/05 06:14:18;;;;;;;5.53;2.70;;;;;;;3.75;79.11;100828.63;5078305;28;20164;-66
2022/02/05 06:16:46;;;;;;;4.50;2.77;;;;;;;3.58;78.45;100838.28;5061728;28;20407;-65
2022/02/05 06:19:14;;;;;;;7.93;3.30;;;;;;;3.81;78.48;100852.06;5078883;28;20419;-66
2022/02/05 06:21:39;;;;;;;7.97;3.30;;;;;;;3.35;79.64;100854.56;5078336;28;20426;-65
2022/02/05 06:24:04;;;;;;;5.87;3.00;;;;;;;3.77;79.14;100857.94;5078207;28;20415;-64
2022/02/05 06:26:30;;;;;;;4.83;2.77;;;;;;;3.32;80.39;100862.19;5078244;28;20184;-65
2022/02/05 06:28:55;;;;;;;9.90;3.23;;;;;;;3.49;80.01;100868.03;5078269;28;20180;-65
2022/02/05 06:31:20;;;;;;;9.47;3.73;;;;;;;3.39;80.78;100865.03;5078249;28;20204;-65
2022/02/05 06:33:47;;;;;;;9.63;3.10;;;;;;;3.33;81.78;100866.53;5078357;28;20215;-64
2022/02/05 06:36:13;;;;;;;4.50;2.87;;;;;;;3.54;80.14;100865.63;5078020;28;20224;-63
2022/02/05 06:38:38;;;;;;;8.33;2.83;;;;;;;3.47;81.75;100864.50;5078173;28;20430;-65
2022/02/05 06:41:03;;;;;;;6.03;3.13;;;;;;;3.13;82.02;100868.28;5078747;28;20169;-64
2022/02/05 06:43:29;;;;;;;6.27;3.87;;;;;;;3.42;81.85;100863.44;5077969;28;20434;-65
2022/02/05 06:45:54;;;;;;;3.57;2.97;;;;;;;3.42;81.66;100870.28;5078109;28;20467;-66
2022/02/05 06:48:19;;;;;;;12.00;3.40;;;;;;;3.23;80.88;100872.09;5078619;28;20191;-65
2022/02/05 06:50:44;;;;;;;5.20;3.40;;;;;;;3.06;82.39;100876.56;5078263;28;20172;-65
2022/02/05 06:53:10;;;;;;;4.53;2.80;;;;;;;3.30;81.97;100883.53;5077832;28;20548;-65
2022/02/05 06:55:35;;;;;;;8.60;3.90;;;;;;;3.09;83.10;100876.69;5078477;28;20196;-64
2022/02/05 06:58:00;;;;;;;6.00;3.33;;;;;;;3.64;81.69;100877.19;5077979;28;20181;-64
2022/02/05 07:00:26;;;;;;;6.60;2.97;;;;;;;3.22;81.54;100883.25;5061033;28;20193;-65
2022/02/05 07:02:51;;;;;;;6.80;3.13;;;;;;;3.33;81.98;100876.84;5078296;28;20165;-65
2022/02/05 07:05:16;;;;;;;7.77;3.23;;;;;;;3.40;82.02;100887.38;5077909;28;20181;-64
2022/02/05 07:07:42;;;;;;;3.73;2.90;;;;;;;3.29;81.07;100887.81;5094029;28;20177;-65
2022/02/05 07:10:08;;;;;;;6.00;2.90;;;;;;;3.44;81.64;100894.44;5078513;28;20207;-64
2022/02/05 07:12:37;;;;;;;7.47;3.00;;;;;;;3.75;79.90;100895.66;5077946;28;20207;-64
2022/02/05 07:15:08;;;;;;;8.87;3.20;;;;;;;3.70;79.60;100905.81;5079470;28;20438;-65
2022/02/05 07:17:43;;;;;;;5.97;4.00;;;;;;;3.57;80.28;100901.84;5079495;28;20426;-65
2022/02/05 07:20:35;;;;;;;4.83;3.10;;;;;;;3.65;80.13;100897.91;5078610;28;20410;-65
2022/02/05 07:30:57;;;;;;;6.83;3.60;;;;;;;3.45;80.51;100909.06;5078138;28;20417;-65
2022/02/05 07:33:23;;;;;;;11.97;3.60;;;;;;;3.65;80.94;100913.38;5060041;28;20470;-66
2022/02/05 07:35:49;;;;;;;11.93;4.07;;;;;;;3.98;80.19;100909.50;5077551;28;20520;-65
2022/02/05 07:38:14;;;;;;;7.57;3.30;;;;;;;3.89;79.58;100902.25;5078154;28;20161;-66
2022/02/05 07:40:39;;;;;;;8.90;3.50;;;;;;;3.60;80.35;100912.28;5081001;28;20479;-65
2022/02/05 07:43:05;;;;;;;7.20;3.53;;;;;;;3.79;79.93;100913.91;5081228;28;20169;-65
2022/02/05 07:45:30;;;;;;;9.23;3.20;;;;;;;3.98;79.95;100917.22;5081898;28;20222;-66
2022/02/05 07:47:55;;;;;;;7.20;3.33;;;;;;;4.29;79.03;100918.38;5081111;28;20180;-65
2022/02/05 07:50:21;;;;;;;6.80;3.03;;;;;;;3.92;79.90;100933.31;5081208;28;20455;-65
2022/02/05 07:52:46;;;;;;;7.90;3.43;;;;;;;4.37;77.87;100928.19;5081557;28;20208;-66
2022/02/05 07:55:11;;;;;;;6.90;3.00;;;;;;;4.34;79.22;100933.25;5081190;28;20197;-66
2022/02/05 07:57:37;;;;;;;7.03;3.13;;;;;;;4.05;77.97;100940.72;5063663;28;20655;-66
2022/02/05 08:00:04;;;;;;;8.37;2.97;;;;;;;4.27;77.08;100936.41;5081681;28;20522;-65
2022/02/05 08:02:30;;;;;;;4.93;3.30;;;;;;;4.49;76.96;100934.63;5081093;28;20179;-66
2022/02/05 08:04:55;;;;;;;6.30;3.00;;;;;;;4.22;76.29;100935.34;5080950;28;20411;-65
2022/02/05 08:07:20;;;;;;;6.87;3.00;;;;;;;4.37;76.65;100942.78;5081473;28;20419;-65
2022/02/05 08:12:20;;;;;;;6.83;3.17;;;;;;;5.45;73.29;100951.81;5080856;28;20208;-65
2022/02/05 08:14:49;;;;;;;7.50;3.23;;;;;;;5.47;71.81;100949.31;5080516;28;20802;-65
2022/02/05 08:19:42;;;;;;;11.20;3.80;;;;;;;7.17;67.23;100944.06;5081200;28;20382;-65
2022/02/05 08:22:08;;;;;;;5.03;3.30;;;;;;;7.19;65.81;100952.78;5080812;28;20794;-65
2022/02/05 08:24:33;;;;;;;6.73;2.90;;;;;;;7.78;64.53;100949.06;5080744;28;20180;-66
2022/02/05 08:26:58;;;;;;;7.17;3.60;;;;;;;7.65;64.54;100956.56;5080876;28;20537;-65
2022/02/05 08:29:23;;;;;;;7.13;3.30;;;;;;;8.68;62.24;100954.59;5080576;28;20179;-65
2022/02/05 08:31:49;;;;;;;6.30;3.33;;;;;;;8.34;62.39;100961.63;5080533;28;20200;-66
2022/02/05 08:34:15;;;;;;;8.73;3.50;;;;;;;8.30;63.14;100963.28;5080518;28;20545;-66
2022/02/05 08:36:45;;;;;;;8.97;3.93;;;;;;;8.47;62.80;100958.50;5080230;28;20221;-65
2022/02/05 08:39:11;;;;;;;6.57;3.37;;;;;;;8.60;61.32;100970.03;5062935;28;20418;-65
2022/02/05 08:41:36;;;;;;;7.13;3.73;;;;;;;8.52;60.43;100967.25;5081417;28;20392;-66
2022/02/05 08:44:02;;;;;;;7.70;4.30;;;;;;;8.71;60.05;100973.75;5080032;28;20386;-65
2022/02/05 08:46:28;;;;;;;6.70;3.80;;;;;;;8.53;60.68;100974.22;5080273;28;20428;-65
2022/02/05 08:48:53;;;;;;;7.70;3.80;;;;;;;8.48;61.02;100970.63;5080719;28;20374;-66
2022/02/05 08:51:18;;;;;;;12.00;4.03;;;;;;;8.43;61.01;100977.44;5063070;28;20161;-65
2022/02/05 08:53:44;;;;;;;9.17;3.87;;;;;;;8.70;61.24;100973.69;5081631;28;20203;-65
2022/02/05 08:56:09;;;;;;;11.80;4.40;;;;;;;9.49;59.27;100972.63;5080884;28;20246;-65
2022/02/05 08:58:34;;;;;;;8.80;3.87;;;;;;;9.47;58.70;100972.59;5080113;28;20278;-66
2022/02/05 09:01:11;;;;;;;10.40;4.27;;;;;;;9.63;58.06;100971.13;5079921;28;20232;-67
2022/02/05 09:03:57;;;;;;;11.20;4.20;;;;;;;8.93;59.38;100982.00;5079796;28;20195;-67
2022/02/05 09:06:28;;;;;;;10.50;4.07;;;;;;;8.38;61.80;100989.44;5079850;28;20441;-66
2022/02/05 09:09:06;;;;;;;8.13;4.00;;;;;;;8.09;63.43;100995.72;5079671;28;20405;-66
2022/02/05 09:11:37;;;;;;;9.10;4.20;;;;;;;7.66;64.18;101004.13;5079601;28;20407;-67
2022/02/05 09:14:30;;;;;;;9.23;4.43;;;;;;;6.86;66.88;101011.50;5079620;28;20411;-66
2022/02/05 09:16:56;;;;;;;10.40;3.87;;;;;;;6.38;68.93;101017.81;5080137;28;20415;-69
2022/02/05 09:19:22;;;;;;;8.93;3.57;;;;;;;6.70;68.31;101020.53;5079893;28;20382;-66
2022/02/05 09:21:47;;;;;;;7.47;3.67;;;;;;;6.81;68.08;101014.78;5079725;28;20226;-66
2022/02/05 09:24:12;;;;;;;7.77;4.47;;;;;;;6.52;69.23;101022.53;5079683;28;20286;-66
2022/02/05 09:26:43;;;;;;;7.37;3.80;;;;;;;6.34;70.00;101031.50;5079518;28;20176;-66
2022/02/05 09:29:18;;;;;;;7.90;3.93;;;;;;;6.29;69.54;101017.56;5079247;28;20171;-65
2022/02/05 09:31:44;;;;;;;10.67;3.97;;;;;;;6.69;69.36;101021.34;5079164;28;20414;-66
2022/02/05 09:34:09;;;;;;;13.23;5.07;;;;;;;6.45;70.21;101023.19;5061734;28;20733;-66
2022/02/05 09:36:36;;;;;;;11.50;4.13;;;;;;;6.51;70.03;101023.41;5079381;28;20213;-65
2022/02/05 09:39:01;;;;;;;11.17;3.70;;;;;;;6.38;69.85;101020.41;5079125;28;20423;-66
2022/02/05 09:41:27;;;;;;;6.40;3.73;;;;;;;6.31;70.16;101026.22;5078921;28;20418;-66
2022/02/05 09:43:52;;;;;;;6.90;3.37;;;;;;;6.17;70.39;101027.50;5079509;28;20169;-66
2022/02/05 09:46:20;;;;;;;11.13;5.60;;;;;;;6.49;70.57;101032.81;5061703;28;20651;-67
2022/02/05 09:48:47;;;;;;;10.33;4.03;;;;;;;6.22;70.83;101026.84;5078854;28;20528;-65
2022/02/05 09:51:17;;;;;;;11.00;3.90;;;;;;;7.18;69.18;101024.47;5079272;28;20399;-66
2022/02/05 09:53:47;;;;;;;8.40;3.53;;;;;;;9.47;72.44;101005.53;5078776;28;20487;-58
2022/02/05 09:56:12;;;;;;;9.47;3.80;;;;;;;9.61;63.93;101009.28;5058979;28;20427;-61
2022/02/05 09:58:37;;;;;;;10.57;3.97;;;;;;;9.49;60.88;101003.84;5078922;28;20422;-59
2022/02/05 10:01:26;;;;;;;7.90;3.47;;;;;;;8.70;60.61;101018.78;5078290;28;20193;-54
2022/02/05 10:03:52;;;;;;;8.40;4.13;;;;;;;8.52;66.56;101019.22;5078669;28;20172;-57
2022/02/05 10:06:22;;;;;;;17.93;4.63;;;;;;;7.73;63.98;101014.72;5078499;28;20386;-66
2022/02/05 10:09:06;;;;;;;11.13;4.33;;;;;;;7.93;64.35;101012.63;5078508;28;20484;-65
2022/02/05 10:11:46;;;;;;;6.97;3.73;;;;;;;7.99;62.63;101013.63;5090911;28;20395;-65
2022/02/05 10:14:16;;;;;;;10.57;3.43;;;;;;;7.53;63.73;101023.69;5058390;28;20427;-65
2022/02/05 10:16:41;;;;;;;9.40;3.80;;;;;;;7.55;65.01;101027.19;5058248;28;20421;-65
2022/02/05 10:19:07;;;;;;;10.00;3.67;;;;;;;7.69;64.26;101025.00;5074375;28;20647;-66
2022/02/05 10:21:33;;;;;;;6.63;3.23;;;;;;;8.45;62.83;101021.63;5058955;28;20177;-66
2022/02/05 10:24:09;;;;;;;8.67;4.10;;;;;;;7.76;63.15;101032.09;5057997;28;20173;-63
2022/02/05 10:26:36;;;;;;;13.10;4.13;;;;;;;8.05;63.33;101022.44;5058098;28;20165;-65
2022/02/05 10:29:11;;;;;;;7.00;3.13;;;;;;;7.45;64.85;101039.06;5065442;28;20385;-66
2022/02/05 10:32:15;;;;;;;9.53;4.03;;;;;;;7.68;64.04;101025.81;5078195;28;20396;-66
2022/02/05 10:37:30;;;;;;;7.33;3.70;;;;;;;8.76;61.65;101024.09;5073299;28;20676;-66
2022/02/05 10:45:09;;;;;;;8.80;4.10;;;;;;;8.09;63.30;101019.06;5077798;28;20510;-66
2022/02/05 10:47:52;;;;;;;7.47;3.90;;;;;;;8.81;62.06;101016.41;5060623;28;20494;-67
2022/02/05 10:50:21;;;;;;;11.13;4.07;;;;;;;8.58;61.30;101013.31;5078238;28;20193;-67
2022/02/05 10:52:57;;;;;;;7.20;4.30;;;;;;;8.29;62.29;101023.00;5077877;28;20880;-66
2022/02/05 10:58:32;;;;;;;7.50;3.83;;;;;;;7.93;62.76;101033.41;5077916;28;20389;-66
2022/02/05 11:06:56;;;;;;;9.93;4.00;;;;;;;9.04;59.91;101014.28;5077786;28;20436;-66
2022/02/05 11:09:25;;;;;;;8.53;3.60;;;;;;;9.19;59.04;101015.44;5060435;28;20454;-67
2022/02/05 11:20:00;;;;;;;12.13;4.27;;;;;;;7.53;63.48;101032.34;5081848;28;20393;-68
2022/02/05 11:22:32;;;;;;;9.80;3.70;;;;;;;7.38;64.17;101032.81;5081802;28;20480;-69
2022/02/05 11:25:01;;;;;;;10.50;4.20;;;;;;;8.12;62.96;101020.88;5064195;28;20505;-68
2022/02/05 11:27:26;;;;;;;12.57;4.80;;;;;;;7.98;63.67;101017.06;5064244;28;20426;-67
2022/02/05 11:29:53;;;;;;;7.57;4.03;;;;;;;7.70;64.28;101025.03;5064358;28;20418;-68
2022/02/05 11:32:26;;;;;;;8.63;3.90;;;;;;;7.78;64.58;101032.13;5081787;28;20279;-67
2022/02/05 11:35:04;;;;;;;10.67;4.10;;;;;;;7.44;65.36;101024.31;5081258;28;20486;-67
2022/02/05 11:37:30;;;;;;;22.13;6.10;;;;;;;7.61;65.07;101018.72;5081617;28;20381;-69
2022/02/05 11:39:55;;;;;;;9.93;4.10;;;;;;;7.69;63.47;101022.41;5081195;28;20504;-68
2022/02/05 11:42:31;;;;;;;10.33;4.00;;;;;;;7.75;62.53;101014.75;5081487;28;20165;-69
2022/02/05 11:45:02;;;;;;;12.57;4.40;;;;;;;8.80;60.17;101013.78;5081475;28;20165;-70
2022/02/05 11:47:29;;;;;;;11.40;4.57;;;;;;;8.49;61.46;101003.56;5064121;28;20390;-66
2022/02/05 11:49:58;;;;;;;6.50;4.53;;;;;;;8.80;60.33;101016.38;5065151;28;20797;-67
2022/02/05 11:52:35;;;;;;;7.40;4.20;;;;;;;8.52;59.90;101005.34;5081352;28;20433;-66
2022/02/05 11:55:07;;;;;;;8.50;4.30;;;;;;;8.57;60.07;101002.00;5081413;28;20407;-67
2022/02/05 11:57:41;;;;;;;8.87;3.50;;;;;;;8.79;60.03;101009.41;5081125;28;20389;-67
2022/02/05 12:00:09;;;;;;;19.70;4.70;;;;;;;9.06;59.10;101004.75;5080935;28;21220;-67
2022/02/05 12:02:45;;;;;;;9.10;4.27;;;;;;;8.62;59.24;100996.94;5078461;28;20385;-67
2022/02/05 12:05:15;;;;;;;9.07;4.20;;;;;;;8.31;60.67;100988.41;5060795;28;20392;-68
2022/02/05 12:21:27;;;;;;;13.20;4.50;;;;;;;8.14;59.88;100989.75;5061070;28;20441;-68
2022/02/05 12:26:25;;;;;;;12.27;3.90;;;;;;;8.37;58.91;100985.94;5059786;28;20462;-68
2022/02/05 12:28:52;;;;;;;12.03;3.93;;;;;;;7.86;60.05;100989.06;5060597;28;20170;-68
2022/02/05 12:31:17;;;;;;;13.00;4.20;;;;;;;7.46;60.91;100986.34;5060441;28;20422;-69
2022/02/05 12:33:42;;;;;;;15.20;6.50;;;;;;;7.32;61.50;100993.75;5060520;28;20539;-69
2022/02/05 12:36:08;;;;;;;12.37;4.27;;;;;;;7.30;61.93;100992.81;5060120;28;20222;-68
2022/02/05 12:38:38;;;;;;;11.13;3.83;;;;;;;7.81;62.26;100978.59;5042907;28;20173;-68
2022/02/05 12:41:05;;;;;;;9.80;4.03;;;;;;;7.07;62.73;101006.03;5060829;28;20253;-68
2022/02/05 12:43:50;;;;;;;8.90;3.70;;;;;;;7.23;63.63;101001.28;5059992;28;20406;-67
2022/02/05 12:46:16;;;;;;;7.90;3.53;;;;;;;7.38;64.18;101001.69;5060296;28;20523;-69
2022/02/05 12:48:44;;;;;;;11.50;3.30;;;;;;;7.28;64.14;100994.53;5060029;28;20483;-68
2022/02/05 12:51:11;;;;;;;8.00;4.80;;;;;;;7.37;63.51;100981.81;5060088;28;20416;-68
2022/02/05 12:53:38;;;;;;;6.90;4.17;;;;;;;7.55;62.72;100983.09;5060025;28;20426;-66
2022/02/05 12:56:12;;;;;;;9.90;4.77;;;;;;;7.72;62.17;100983.53;5060109;28;20390;-66
2022/02/05 12:59:01;;;;;;;10.77;4.10;;;;;;;7.66;63.05;100976.47;5059966;28;20412;-66
2022/02/05 13:01:27;;;;;;;8.37;4.33;;;;;;;7.89;61.59;100981.38;5059820;28;20417;-65
2022/02/05 13:04:12;;;;;;;9.63;4.03;;;;;;;7.91;62.58;100961.50;5059669;28;20420;-66
2022/02/05 13:06:37;;;;;;;10.63;4.33;;;;;;;7.27;62.96;100969.41;5059802;28;20727;-67
2022/02/05 13:09:03;;;;;;;11.40;4.60;;;;;;;7.75;62.27;100955.97;5059879;28;20412;-67
2022/02/05 13:11:30;;;;;;;8.27;4.27;;;;;;;7.33;63.15;100954.00;5059655;28;20200;-67
2022/02/05 13:13:56;;;;;;;11.20;4.53;;;;;;;7.62;62.90;100948.69;5059410;28;20284;-67
2022/02/05 13:16:23;;;;;;;13.13;4.80;;;;;;;8.25;60.80;100945.00;5060189;28;20806;-68
2022/02/05 13:19:14;;;;;;;10.23;4.57;;;;;;;8.00;60.14;100951.34;5042162;28;20535;-69
2022/02/05 13:24:57;;;;;;;7.00;4.50;;;;;;;7.50;61.19;100946.66;5059490;28;20435;-69
2022/02/05 13:27:41;;;;;;;11.30;4.30;;;;;;;7.81;60.53;100944.84;5059493;28;20404;-68
2022/02/05 13:36:14;;;;;;;14.50;4.30;;;;;;;7.67;59.69;100941.03;5070819;28;20519;-69
2022/02/05 13:38:55;;;;;;;8.80;4.20;;;;;;;7.79;59.40;100940.44;5079293;28;20381;-68
2022/02/05 13:41:28;;;;;;;8.70;4.50;;;;;;;7.61;59.67;100936.56;5079203;28;20481;-67
2022/02/05 13:43:55;;;;;;;8.30;4.10;;;;;;;7.58;60.31;100920.94;5079031;28;20419;-67
2022/02/05 13:46:21;;;;;;;11.43;3.70;;;;;;;7.57;59.43;100933.00;5079134;28;20798;-67
2022/02/05 13:48:46;;;;;;;10.17;3.97;;;;;;;7.78;58.87;100925.72;5078961;28;20467;-67
2022/02/05 13:51:12;;;;;;;13.30;4.40;;;;;;;7.45;59.46;100934.44;5079523;28;20245;-68
2022/02/05 13:53:55;;;;;;;8.30;4.13;;;;;;;7.44;59.80;100927.47;5078503;28;20334;-67
2022/02/05 13:56:22;;;;;;;9.47;4.33;;;;;;;7.41;60.24;100921.38;5078701;28;20169;-68
2022/02/05 13:58:47;;;;;;;10.90;4.27;;;;;;;7.85;59.74;100930.22;5078750;28;20434;-67
2022/02/05 14:01:29;;;;;;;11.10;4.30;;;;;;;7.96;59.57;100930.47;5078572;28;20410;-67
2022/02/05 14:03:55;;;;;;;9.70;4.20;;;;;;;7.45;60.66;100935.28;5065026;28;20192;-67
2022/02/05 14:06:21;;;;;;;9.07;4.47;;;;;;;7.30;60.92;100940.09;5058617;28;20417;-67
2022/02/05 14:08:48;;;;;;;7.80;4.60;;;;;;;7.52;61.26;100931.13;5059098;28;20215;-67
2022/02/05 14:11:16;;;;;;;7.73;4.17;;;;;;;7.11;62.41;100949.97;5058563;28;20255;-68
2022/02/05 14:13:43;;;;;;;5.53;3.57;;;;;;;7.09;62.03;100946.47;5058074;28;20459;-67
2022/02/05 14:16:09;;;;;;;7.20;4.10;;;;;;;6.88;62.64;100933.78;5058812;28;20382;-68
2022/02/05 14:18:52;;;;;;;11.90;4.60;;;;;;;6.95;62.62;100940.88;5058281;28;20422;-68
2022/02/05 14:21:17;;;;;;;8.40;4.77;;;;;;;7.19;62.68;100937.22;5058489;28;20423;-67
2022/02/05 14:23:53;;;;;;;7.27;4.47;;;;;;;6.66;63.89;100960.81;5040918;28;20386;-68
2022/02/05 14:26:30;;;;;;;6.97;4.17;;;;;;;6.80;64.04;100956.03;5058105;28;20287;-75
2022/02/05 14:28:57;;;;;;;10.77;4.70;;;;;;;7.07;63.79;100953.31;5058014;28;20415;-69
2022/02/05 14:36:50;;;;;;;9.80;4.60;;;;;;;7.27;62.67;100946.06;5057920;28;20518;-71
2022/02/05 14:42:04;;;;;;;11.93;5.20;;;;;;;6.70;63.74;100932.44;5058184;28;20402;-68
2022/02/05 14:44:30;;;;;;;10.87;4.77;;;;;;;6.98;64.21;100941.00;5057856;28;20427;-69
2022/02/05 14:46:56;;;;;;;8.40;5.20;;;;;;;7.20;63.05;100938.97;5057982;28;20386;-69